Time;durP1;ratioP1;P1;durP2;ratioP2;P2;SDS_P1;SDS_P2;PMS_P1;PMS_P2;Temp;Humidity;BMP_temperature;BMP_pressure;BME280_temperature;BME280_humidity;BME280_pressure;Samples;Min_cycle;Max_cycle;Signal;HPM_P1;HPM_P2
2023/10/05 00:02:04;;;;;;;6.70;2.40;;;;;;;;;;5035539;28;20017;-59
2023/10/05 00:04:39;;;;;;;6.13;2.72;;;;;;;;;;5040295;28;20085;-59
2023/10/05 00:07:05;;;;;;;7.32;2.17;;;;;;;;;;5040676;28;20029;-59
2023/10/05 00:09:31;;;;;;;7.10;2.08;;;;;;;;;;5035867;28;20021;-61
2023/10/05 00:11:56;;;;;;;5.95;2.78;;;;;;;;;;5033466;28;20495;-59
2023/10/05 00:14:21;;;;;;;7.88;2.30;;;;;;;;;;5033375;28;20049;-60
2023/10/05 00:16:48;;;;;;;8.30;2.78;;;;;;;;;;5033272;28;20068;-60
2023/10/05 00:19:15;;;;;;;5.93;2.20;;;;;;;;;;5032597;28;20549;-59
2023/10/05 00:21:51;;;;;;;6.75;2.92;;;;;;;;;;5032871;28;20444;-59
2023/10/05 00:24:25;;;;;;;6.45;2.20;;;;;;;;;;5033046;28;20038;-59
2023/10/05 00:26:51;;;;;;;5.97;2.13;;;;;;;;;;5032996;28;20393;-60
2023/10/05 00:29:27;;;;;;;7.30;2.57;;;;;;;;;;5032735;28;20032;-59
2023/10/05 00:31:52;;;;;;;6.97;2.78;;;;;;;;;;5033037;28;20017;-60
2023/10/05 00:34:24;;;;;;;5.77;2.20;;;;;;;;;;5033045;28;20389;-59
2023/10/05 00:36:50;;;;;;;9.45;2.63;;;;;;;;;;5032798;28;20032;-59
2023/10/05 00:39:20;;;;;;;6.68;2.25;;;;;;;;;;5032777;28;20105;-59
2023/10/05 00:41:54;;;;;;;6.82;2.13;;;;;;;;;;5033610;28;20028;-59
2023/10/05 00:44:21;;;;;;;7.80;3.55;;;;;;;;;;5033982;28;20164;-60
2023/10/05 00:46:50;;;;;;;7.45;2.58;;;;;;;;;;5035335;28;20029;-59
2023/10/05 00:49:19;;;;;;;7.53;2.50;;;;;;;;;;5034494;28;20118;-60
2023/10/05 00:51:54;;;;;;;6.40;2.72;;;;;;;;;;5032238;28;20017;-59
2023/10/05 00:54:25;;;;;;;6.28;3.05;;;;;;;;;;5032449;28;20172;-60
2023/10/05 00:56:52;;;;;;;8.05;4.00;;;;;;;;;;5032090;28;20072;-59
2023/10/05 00:59:20;;;;;;;9.52;4.47;;;;;;;;;;5031822;28;20091;-59
2023/10/05 01:04:34;;;;;;;9.20;3.78;;;;;;;;;;5032475;28;20017;-61
2023/10/05 01:07:17;;;;;;;8.30;3.00;;;;;;;;;;5032627;28;20021;-60
2023/10/05 01:12:37;;;;;;;7.38;2.78;;;;;;;;;;5032250;28;20477;-59
2023/10/05 01:15:06;;;;;;;8.35;3.00;;;;;;;;;;5032136;28;20057;-59
2023/10/05 01:17:32;;;;;;;6.57;2.55;;;;;;;;;;5031851;28;20041;-58
2023/10/05 01:20:07;;;;;;;7.68;2.42;;;;;;;;;;5030987;28;20025;-58
2023/10/05 01:22:38;;;;;;;6.60;2.22;;;;;;;;;;5012107;28;20084;-58
2023/10/05 01:25:04;;;;;;;7.38;2.80;;;;;;;;;;5011901;28;20166;-58
2023/10/05 01:27:30;;;;;;;7.20;2.70;;;;;;;;;;5012034;28;20018;-59
2023/10/05 01:29:56;;;;;;;6.50;2.72;;;;;;;;;;5011377;28;20030;-59
2023/10/05 01:32:21;;;;;;;8.07;2.97;;;;;;;;;;5011552;28;20022;-59
2023/10/05 01:34:49;;;;;;;7.03;2.77;;;;;;;;;;5011864;28;20061;-60
2023/10/05 01:37:16;;;;;;;8.27;3.97;;;;;;;;;;5012018;28;20045;-60
2023/10/05 01:39:44;;;;;;;8.13;3.13;;;;;;;;;;5011067;28;20473;-60
2023/10/05 01:42:12;;;;;;;8.32;3.42;;;;;;;;;;5011484;28;20045;-60
2023/10/05 01:44:40;;;;;;;9.93;4.07;;;;;;;;;;5011601;28;20018;-59
2023/10/05 01:47:05;;;;;;;7.35;3.45;;;;;;;;;;5011621;28;20547;-61
2023/10/05 01:49:31;;;;;;;8.37;4.80;;;;;;;;;;5011055;28;20108;-60
2023/10/05 01:51:57;;;;;;;6.63;3.47;;;;;;;;;;5011669;28;20083;-58
2023/10/05 01:54:26;;;;;;;8.93;3.23;;;;;;;;;;5011264;28;20014;-57
2023/10/05 01:56:51;;;;;;;6.43;3.03;;;;;;;;;;5011677;28;20014;-59
2023/10/05 01:59:20;;;;;;;9.40;3.93;;;;;;;;;;5010483;28;20076;-57
2023/10/05 02:01:45;;;;;;;8.40;4.80;;;;;;;;;;5008981;28;20022;-58
2023/10/05 02:04:11;;;;;;;8.53;4.70;;;;;;;;;;5011361;28;20470;-59
2023/10/05 02:06:40;;;;;;;8.30;4.47;;;;;;;;;;5011802;28;20029;-58
2023/10/05 02:09:06;;;;;;;8.82;4.72;;;;;;;;;;5011083;28;20030;-60
2023/10/05 02:11:33;;;;;;;8.85;5.43;;;;;;;;;;5011008;28;20084;-60
2023/10/05 02:14:03;;;;;;;8.48;5.72;;;;;;;;;;5011211;28;20524;-58
2023/10/05 02:16:30;;;;;;;8.63;7.40;;;;;;;;;;5011714;28;20050;-58
2023/10/05 02:18:56;;;;;;;8.15;4.60;;;;;;;;;;5011493;28;20046;-59
2023/10/05 02:21:32;;;;;;;9.15;7.05;;;;;;;;;;5021846;28;20060;-58
2023/10/05 02:23:57;;;;;;;8.45;5.18;;;;;;;;;;5030691;28;20079;-58
2023/10/05 02:26:24;;;;;;;9.57;4.15;;;;;;;;;;5031700;28;20013;-58
2023/10/05 02:28:51;;;;;;;7.78;4.45;;;;;;;;;;5031785;28;20104;-58
2023/10/05 02:31:16;;;;;;;9.55;7.25;;;;;;;;;;5031041;28;20071;-60
2023/10/05 02:33:43;;;;;;;9.50;6.33;;;;;;;;;;5030892;28;20019;-58
2023/10/05 02:36:20;;;;;;;;;;;;;;;;;;5031738;28;20989;-58
2023/10/05 02:38:53;;;;;;;9.95;5.85;;;;;;;;;;5031042;28;19944;-58
2023/10/05 02:41:24;;;;;;;11.20;6.80;;;;;;;;;;5029488;28;20018;-59
2023/10/05 02:43:53;;;;;;;11.55;8.35;;;;;;;;;;5031423;28;20022;-59
2023/10/05 02:46:20;;;;;;;10.98;7.97;;;;;;;;;;5030972;28;20018;-59
2023/10/05 02:48:45;;;;;;;11.20;6.78;;;;;;;;;;5030308;28;20028;-57
2023/10/05 02:51:11;;;;;;;14.10;12.73;;;;;;;;;;5028996;28;20036;-59
2023/10/05 02:53:46;;;;;;;10.25;9.25;;;;;;;;;;5030789;28;20041;-59
2023/10/05 02:56:26;;;;;;;10.27;7.20;;;;;;;;;;5030626;28;20033;-59
2023/10/05 02:58:54;;;;;;;10.45;6.45;;;;;;;;;;5030739;28;20025;-60
2023/10/05 03:01:20;;;;;;;9.90;6.38;;;;;;;;;;5030368;28;20141;-59
2023/10/05 03:03:46;;;;;;;12.70;11.18;;;;;;;;;;5038984;28;20025;-58
2023/10/05 03:06:13;;;;;;;11.85;8.18;;;;;;;;;;5050467;28;20452;-59
2023/10/05 03:08:39;;;;;;;10.67;6.70;;;;;;;;;;5050687;28;20021;-58
2023/10/05 03:11:08;;;;;;;11.02;8.65;;;;;;;;;;5050103;28;20472;-58
2023/10/05 03:13:33;;;;;;;12.07;6.47;;;;;;;;;;5050324;28;20037;-59
2023/10/05 03:16:00;;;;;;;10.70;5.67;;;;;;;;;;5054217;28;20021;-58
2023/10/05 03:18:26;;;;;;;9.75;5.97;;;;;;;;;;5053837;28;20032;-58
2023/10/05 03:20:51;;;;;;;12.43;7.50;;;;;;;;;;5038617;28;20025;-58
2023/10/05 03:23:16;;;;;;;11.48;10.20;;;;;;;;;;5034161;28;20045;-59
2023/10/05 03:25:41;;;;;;;11.15;7.82;;;;;;;;;;5033814;28;20026;-58
2023/10/05 03:28:07;;;;;;;9.77;8.17;;;;;;;;;;5034347;28;20021;-59
2023/10/05 03:30:35;;;;;;;12.90;9.03;;;;;;;;;;5033634;28;20508;-58
2023/10/05 03:33:00;;;;;;;11.85;8.35;;;;;;;;;;5033734;28;20416;-58
2023/10/05 03:35:26;;;;;;;10.48;6.60;;;;;;;;;;5033466;28;20385;-57
2023/10/05 03:37:53;;;;;;;13.98;10.77;;;;;;;;;;5034297;28;20028;-58
2023/10/05 03:40:25;;;;;;;13.82;6.70;;;;;;;;;;5033804;28;20499;-58
2023/10/05 03:42:58;;;;;;;13.02;11.73;;;;;;;;;;5035527;28;20021;-58
2023/10/05 03:45:23;;;;;;;14.50;9.20;;;;;;;;;;5037353;28;20065;-58
2023/10/05 03:47:49;;;;;;;15.60;14.13;;;;;;;;;;5043001;28;20026;-59
2023/10/05 03:50:17;;;;;;;9.70;5.82;;;;;;;;;;5035373;28;20021;-59
2023/10/05 03:52:44;;;;;;;12.65;9.80;;;;;;;;;;5034970;28;20457;-58
2023/10/05 03:55:10;;;;;;;13.25;9.90;;;;;;;;;;5033807;28;20091;-58
2023/10/05 03:57:36;;;;;;;14.68;13.20;;;;;;;;;;5032223;28;20018;-59
2023/10/05 04:00:18;;;;;;;16.80;15.32;;;;;;;;;;5033123;28;20477;-60
2023/10/05 04:02:43;;;;;;;11.15;6.68;;;;;;;;;;5033432;28;20477;-59
2023/10/05 04:05:10;;;;;;;13.00;7.83;;;;;;;;;;5032871;28;20116;-57
2023/10/05 04:07:36;;;;;;;11.98;7.63;;;;;;;;;;5033345;28;20112;-60
2023/10/05 04:10:03;;;;;;;12.43;6.73;;;;;;;;;;5032850;28;20092;-58
2023/10/05 04:12:32;;;;;;;12.50;7.68;;;;;;;;;;5033251;28;20536;-57
2023/10/05 04:14:57;;;;;;;12.95;11.30;;;;;;;;;;5033130;28;20075;-58
2023/10/05 04:17:22;;;;;;;21.43;19.63;;;;;;;;;;5033362;28;20025;-58
2023/10/05 04:19:48;;;;;;;11.73;8.87;;;;;;;;;;5032539;28;20483;-59
2023/10/05 04:22:14;;;;;;;13.43;10.97;;;;;;;;;;5033105;28;20029;-61
2023/10/05 04:24:40;;;;;;;14.55;13.13;;;;;;;;;;5031558;28;20021;-60
2023/10/05 04:27:07;;;;;;;13.27;11.77;;;;;;;;;;5032903;28;20024;-57
2023/10/05 04:29:32;;;;;;;10.75;8.95;;;;;;;;;;5032755;28;20452;-57
2023/10/05 04:31:58;;;;;;;17.08;15.45;;;;;;;;;;5033014;28;20400;-60
2023/10/05 04:34:27;;;;;;;11.05;9.38;;;;;;;;;;5032604;28;20470;-60
2023/10/05 04:36:54;;;;;;;13.02;9.55;;;;;;;;;;5032929;28;20021;-58
2023/10/05 04:39:27;;;;;;;11.73;9.30;;;;;;;;;;5032495;28;20492;-58
2023/10/05 04:41:55;;;;;;;14.30;12.77;;;;;;;;;;5032677;28;20017;-59
2023/10/05 04:44:20;;;;;;;23.17;21.38;;;;;;;;;;5032422;28;20029;-60
2023/10/05 04:46:48;;;;;;;15.10;13.70;;;;;;;;;;5032576;28;20029;-58
2023/10/05 04:49:14;;;;;;;17.27;15.95;;;;;;;;;;5032073;28;20014;-60
2023/10/05 04:51:41;;;;;;;14.38;12.88;;;;;;;;;;5032654;28;20455;-60
2023/10/05 04:54:07;;;;;;;12.50;10.98;;;;;;;;;;5032222;28;20028;-59
2023/10/05 04:56:40;;;;;;;13.57;10.40;;;;;;;;;;5032412;28;20100;-60
2023/10/05 05:04:28;;;;;;;11.23;9.82;;;;;;;;;;5032354;28;20277;-60
2023/10/05 05:06:58;;;;;;;11.50;7.00;;;;;;;;;;5032505;28;20025;-60
2023/10/05 05:09:28;;;;;;;10.88;8.40;;;;;;;;;;5031768;28;20481;-59
2023/10/05 05:11:56;;;;;;;11.90;6.63;;;;;;;;;;5032311;28;20048;-60
2023/10/05 05:14:23;;;;;;;11.80;9.90;;;;;;;;;;5032510;28;20083;-59
2023/10/05 05:16:49;;;;;;;9.63;5.93;;;;;;;;;;5031985;28;20056;-60
2023/10/05 05:19:14;;;;;;;14.10;10.25;;;;;;;;;;5031289;28;20030;-58
2023/10/05 05:21:40;;;;;;;14.67;12.20;;;;;;;;;;5031951;28;20028;-57
2023/10/05 05:24:05;;;;;;;13.18;8.73;;;;;;;;;;5031773;28;20029;-58
2023/10/05 05:26:31;;;;;;;18.42;16.45;;;;;;;;;;5031906;28;20029;-59
2023/10/05 05:29:11;;;;;;;11.88;7.57;;;;;;;;;;5031498;28;20036;-58
2023/10/05 05:31:36;;;;;;;11.32;7.38;;;;;;;;;;5031448;28;20404;-60
2023/10/05 05:34:01;;;;;;;10.95;8.30;;;;;;;;;;5031561;28;20151;-61
2023/10/05 05:36:27;;;;;;;13.45;7.15;;;;;;;;;;5029955;28;20025;-59
2023/10/05 05:38:52;;;;;;;10.88;8.07;;;;;;;;;;5031444;28;20018;-58
2023/10/05 05:41:19;;;;;;;16.10;10.93;;;;;;;;;;5031077;28;20036;-60
2023/10/05 05:43:44;;;;;;;13.60;10.30;;;;;;;;;;5031598;28;20509;-59
2023/10/05 05:46:12;;;;;;;13.18;11.38;;;;;;;;;;5031440;28;20028;-59
2023/10/05 05:48:37;;;;;;;18.10;16.30;;;;;;;;;;5031267;28;20033;-59
2023/10/05 05:51:10;;;;;;;13.07;11.68;;;;;;;;;;5031186;28;20067;-61
2023/10/05 05:53:37;;;;;;;16.30;12.52;;;;;;;;;;5030255;28;20052;-60
2023/10/05 05:56:03;;;;;;;13.68;11.68;;;;;;;;;;5031474;28;20541;-60
2023/10/05 05:58:28;;;;;;;13.43;11.30;;;;;;;;;;5031364;28;20543;-60
2023/10/05 06:00:55;;;;;;;15.10;10.83;;;;;;;;;;5030818;28;20021;-59
2023/10/05 06:03:21;;;;;;;16.25;10.65;;;;;;;;;;5031336;28;20075;-58
2023/10/05 06:05:48;;;;;;;15.43;13.70;;;;;;;;;;5031202;28;20017;-58
2023/10/05 06:08:13;;;;;;;16.63;14.93;;;;;;;;;;5032447;28;20049;-58
2023/10/05 06:10:43;;;;;;;13.90;12.33;;;;;;;;;;5031771;28;20036;-58
2023/10/05 06:13:11;;;;;;;16.05;13.73;;;;;;;;;;5032049;28;20935;-60
2023/10/05 06:15:36;;;;;;;14.13;8.45;;;;;;;;;;5031528;28;20083;-59
2023/10/05 06:18:02;;;;;;;18.10;16.47;;;;;;;;;;5031541;28;20484;-60
2023/10/05 06:20:27;;;;;;;17.48;11.32;;;;;;;;;;5030821;28;20036;-60
2023/10/05 06:22:52;;;;;;;12.43;9.17;;;;;;;;;;5031332;28;20385;-59
2023/10/05 06:25:18;;;;;;;13.23;10.80;;;;;;;;;;5031097;28;20030;-59
2023/10/05 06:27:44;;;;;;;16.13;11.18;;;;;;;;;;5030976;28;20140;-60
2023/10/05 06:30:11;;;;;;;10.95;6.72;;;;;;;;;;5030100;28;20021;-58
2023/10/05 06:32:36;;;;;;;12.98;10.73;;;;;;;;;;5031248;28;20025;-58
2023/10/05 06:35:03;;;;;;;14.90;12.43;;;;;;;;;;5031209;28;20021;-59
2023/10/05 06:37:29;;;;;;;19.20;17.40;;;;;;;;;;5031243;28;20037;-60
2023/10/05 06:39:54;;;;;;;15.15;11.32;;;;;;;;;;5030806;28;20024;-58
2023/10/05 06:42:20;;;;;;;23.53;21.43;;;;;;;;;;5032347;28;20466;-59
2023/10/05 06:44:45;;;;;;;12.65;11.35;;;;;;;;;;5032061;28;20100;-60
2023/10/05 06:47:18;;;;;;;13.20;11.87;;;;;;;;;;5034879;28;20033;-58
2023/10/05 06:49:44;;;;;;;18.73;16.83;;;;;;;;;;5037354;28;20029;-59
2023/10/05 06:52:09;;;;;;;14.17;9.40;;;;;;;;;;5044165;28;20025;-60
2023/10/05 06:54:34;;;;;;;16.23;12.25;;;;;;;;;;5040464;28;20423;-60
2023/10/05 06:56:59;;;;;;;15.97;10.47;;;;;;;;;;5036013;28;20534;-60
2023/10/05 06:59:25;;;;;;;18.37;16.67;;;;;;;;;;5036962;28;20033;-60
2023/10/05 07:01:52;;;;;;;27.60;25.30;;;;;;;;;;5038046;28;20021;-60
2023/10/05 07:04:20;;;;;;;15.02;11.63;;;;;;;;;;5034680;28;20022;-60
2023/10/05 07:06:46;;;;;;;32.22;29.90;;;;;;;;;;5034574;28;20044;-58
2023/10/05 07:09:11;;;;;;;14.07;11.35;;;;;;;;;;5034514;28;20108;-58
2023/10/05 07:11:37;;;;;;;19.63;18.00;;;;;;;;;;5034211;28;20071;-58
2023/10/05 07:14:03;;;;;;;12.85;9.32;;;;;;;;;;5033051;28;20028;-60
2023/10/05 07:16:29;;;;;;;15.60;13.30;;;;;;;;;;5034377;28;20021;-58
2023/10/05 07:18:54;;;;;;;24.55;22.50;;;;;;;;;;5034196;28;20095;-59
2023/10/05 07:21:20;;;;;;;17.83;16.23;;;;;;;;;;5033783;28;20412;-59
2023/10/05 07:23:46;;;;;;;31.98;29.60;;;;;;;;;;5033705;28;20033;-60
2023/10/05 07:26:11;;;;;;;17.05;15.23;;;;;;;;;;5034094;28;20079;-60
2023/10/05 07:28:37;;;;;;;27.75;25.35;;;;;;;;;;5034012;28;20021;-59
2023/10/05 07:31:03;;;;;;;20.33;18.52;;;;;;;;;;5033292;28;20029;-59
2023/10/05 07:33:28;;;;;;;19.23;17.17;;;;;;;;;;5033643;28;20024;-59
2023/10/05 07:35:54;;;;;;;21.77;19.95;;;;;;;;;;5033772;28;20022;-60
2023/10/05 07:38:20;;;;;;;13.05;11.60;;;;;;;;;;5033934;28;20025;-60
2023/10/05 07:40:45;;;;;;;20.30;18.50;;;;;;;;;;5033278;28;20025;-59
2023/10/05 07:43:11;;;;;;;19.38;17.65;;;;;;;;;;5033759;28;20089;-59
2023/10/05 07:45:37;;;;;;;14.32;12.88;;;;;;;;;;5033694;28;20056;-60
2023/10/05 07:48:04;;;;;;;30.83;28.55;;;;;;;;;;5034259;28;20026;-59
2023/10/05 07:50:29;;;;;;;24.27;22.30;;;;;;;;;;5033658;28;20096;-59
2023/10/05 07:52:57;;;;;;;17.00;15.50;;;;;;;;;;5034089;28;20056;-59
2023/10/05 07:55:23;;;;;;;10.10;7.82;;;;;;;;;;5033729;28;20434;-60
2023/10/05 07:57:48;;;;;;;14.18;12.75;;;;;;;;;;5033906;28;20053;-59
2023/10/05 08:00:13;;;;;;;26.90;24.77;;;;;;;;;;5032664;28;20021;-59
2023/10/05 08:02:39;;;;;;;15.98;14.35;;;;;;;;;;5033494;28;20485;-60
2023/10/05 08:05:09;;;;;;;13.90;12.18;;;;;;;;;;5033694;28;20033;-60
2023/10/05 08:07:34;;;;;;;15.10;13.68;;;;;;;;;;5033355;28;20501;-60
2023/10/05 08:09:59;;;;;;;44.40;40.97;;;;;;;;;;5033265;28;20021;-60
2023/10/05 08:12:27;;;;;;;18.15;16.55;;;;;;;;;;5033367;28;20496;-62
2023/10/05 08:14:52;;;;;;;13.13;10.85;;;;;;;;;;5033493;28;20025;-60
2023/10/05 08:17:17;;;;;;;14.47;11.90;;;;;;;;;;5033126;28;20428;-60
2023/10/05 08:19:43;;;;;;;13.47;12.10;;;;;;;;;;5032275;28;20467;-61
2023/10/05 08:22:09;;;;;;;12.53;9.77;;;;;;;;;;5033193;28;20032;-60
2023/10/05 08:24:35;;;;;;;27.77;25.55;;;;;;;;;;5032883;28;20160;-59
2023/10/05 08:27:00;;;;;;;18.38;16.67;;;;;;;;;;5033069;28;20097;-60
2023/10/05 08:29:27;;;;;;;22.73;14.97;;;;;;;;;;5032799;28;20049;-60
2023/10/05 08:31:53;;;;;;;12.05;10.88;;;;;;;;;;5033106;28;20029;-60
2023/10/05 08:34:21;;;;;;;16.40;13.47;;;;;;;;;;5032924;28;20665;-62
2023/10/05 08:36:49;;;;;;;13.52;12.15;;;;;;;;;;5032829;28;20557;-59
2023/10/05 08:39:23;;;;;;;17.58;16.05;;;;;;;;;;5032201;28;20036;-60
2023/10/05 08:41:48;;;;;;;24.30;22.17;;;;;;;;;;5032990;28;20014;-60
2023/10/05 08:44:26;;;;;;;12.00;10.82;;;;;;;;;;5032671;28;20068;-59
2023/10/05 08:46:52;;;;;;;13.38;10.30;;;;;;;;;;5032362;28;20067;-58
2023/10/05 08:49:17;;;;;;;13.18;11.32;;;;;;;;;;5032468;28;20501;-60
2023/10/05 08:51:44;;;;;;;16.85;15.23;;;;;;;;;;5032556;28;20033;-61
2023/10/05 08:54:11;;;;;;;55.97;51.70;;;;;;;;;;5031382;28;20021;-59
2023/10/05 08:56:40;;;;;;;24.77;22.70;;;;;;;;;;5033232;28;20040;-60
2023/10/05 08:59:07;;;;;;;14.35;12.93;;;;;;;;;;5032304;28;20025;-61
2023/10/05 09:01:33;;;;;;;12.05;7.95;;;;;;;;;;5032053;28;20041;-59
2023/10/05 09:07:08;;;;;;;35.20;32.55;;;;;;;;;;5032397;28;20446;-59
2023/10/05 09:09:38;;;;;;;15.05;13.57;;;;;;;;;;5031931;28;20683;-60
2023/10/05 09:12:17;;;;;;;22.85;21.02;;;;;;;;;;5031535;28;20028;-59
2023/10/05 09:14:43;;;;;;;75.88;65.35;;;;;;;;;;5032638;28;20104;-59
2023/10/05 09:17:08;;;;;;;;;;;;;;;;;;5032919;28;20026;-59
2023/10/05 09:19:34;;;;;;;117.77;109.90;;;;;;;;;;5031686;28;19919;-59
2023/10/05 09:24:27;;;;;;;46.55;42.25;;;;;;;;;;5031664;28;20021;-60
2023/10/05 09:26:53;;;;;;;20.75;19.00;;;;;;;;;;5032113;28;20043;-58
2023/10/05 09:29:22;;;;;;;51.20;47.43;;;;;;;;;;5030348;28;20025;-59
2023/10/05 09:31:51;;;;;;;26.10;24.02;;;;;;;;;;5031885;28;20465;-57
2023/10/05 09:34:19;;;;;;;13.18;11.93;;;;;;;;;;5032574;28;20046;-60
2023/10/05 09:36:44;;;;;;;23.83;22.10;;;;;;;;;;5031066;28;20027;-59
2023/10/05 09:39:10;;;;;;;49.43;44.87;;;;;;;;;;5032136;28;20409;-60
2023/10/05 09:41:36;;;;;;;32.40;29.48;;;;;;;;;;5033088;28;20056;-60
2023/10/05 09:44:07;;;;;;;19.80;18.33;;;;;;;;;;5033201;28;20071;-60
2023/10/05 09:46:33;;;;;;;13.63;10.43;;;;;;;;;;5032949;28;20480;-59
2023/10/05 09:49:01;;;;;;;16.40;15.02;;;;;;;;;;5035704;28;20086;-61
2023/10/05 09:51:26;;;;;;;25.13;23.13;;;;;;;;;;5035283;28;20405;-65
2023/10/05 09:53:52;;;;;;;19.37;17.77;;;;;;;;;;5032288;28;20571;-59
2023/10/05 09:56:20;;;;;;;11.30;9.82;;;;;;;;;;5031533;28;20026;-59
2023/10/05 09:58:45;;;;;;;28.83;26.88;;;;;;;;;;5031335;28;20048;-60
2023/10/05 10:01:10;;;;;;;33.53;30.75;;;;;;;;;;5030926;28;20466;-60
2023/10/05 10:03:36;;;;;;;59.75;54.85;;;;;;;;;;5030043;28;20022;-59
2023/10/05 10:06:09;;;;;;;21.73;19.95;;;;;;;;;;5031316;28;20041;-61
2023/10/05 10:08:42;;;;;;;17.88;16.38;;;;;;;;;;5031399;28;20013;-61
2023/10/05 10:11:18;;;;;;;18.10;16.52;;;;;;;;;;5030352;28;20041;-60
2023/10/05 10:13:49;;;;;;;13.52;12.40;;;;;;;;;;5031232;28;20418;-59
2023/10/05 10:16:17;;;;;;;73.78;67.90;;;;;;;;;;5031241;28;20535;-60
2023/10/05 10:18:44;;;;;;;34.38;31.65;;;;;;;;;;5030634;28;20018;-60
2023/10/05 10:21:18;;;;;;;21.52;19.95;;;;;;;;;;5030442;28;20081;-61
2023/10/05 10:23:49;;;;;;;45.85;43.05;;;;;;;;;;5031012;28;20036;-58
2023/10/05 10:26:20;;;;;;;21.52;19.83;;;;;;;;;;5031009;28;20453;-59
2023/10/05 10:31:14;;;;;;;44.97;41.63;;;;;;;;;;5030697;28;20409;-60
2023/10/05 10:33:40;;;;;;;23.63;21.95;;;;;;;;;;5030662;28;20028;-60
2023/10/05 10:36:13;;;;;;;24.25;22.35;;;;;;;;;;5031085;28;20030;-58
2023/10/05 10:38:39;;;;;;;22.30;20.63;;;;;;;;;;5031371;28;20025;-58
2023/10/05 10:41:07;;;;;;;118.20;108.78;;;;;;;;;;5030534;28;20493;-58
2023/10/05 10:43:32;;;;;;;16.08;14.90;;;;;;;;;;5031660;28;20014;-60
2023/10/05 10:45:59;;;;;;;21.35;19.92;;;;;;;;;;5029430;28;20052;-59
2023/10/05 10:48:29;;;;;;;70.38;64.65;;;;;;;;;;5029200;28;20018;-60
2023/10/05 10:50:57;;;;;;;16.90;15.60;;;;;;;;;;5030484;28;20052;-60
2023/10/05 10:53:25;;;;;;;15.63;14.25;;;;;;;;;;5030932;28;20037;-60
2023/10/05 10:56:03;;;;;;;19.42;18.00;;;;;;;;;;5030691;28;20036;-60
2023/10/05 10:58:30;;;;;;;13.65;12.43;;;;;;;;;;5030605;28;20149;-60
2023/10/05 11:00:59;;;;;;;19.95;18.38;;;;;;;;;;5029810;28;20034;-59
2023/10/05 11:03:26;;;;;;;14.73;13.43;;;;;;;;;;5032039;28;20037;-58
2023/10/05 11:05:54;;;;;;;133.93;121.95;;;;;;;;;;5030877;28;20024;-58
2023/10/05 11:08:22;;;;;;;13.07;11.93;;;;;;;;;;5030431;28;20024;-60
2023/10/05 11:11:00;;;;;;;18.67;17.20;;;;;;;;;;5030025;28;20021;-59
2023/10/05 11:13:26;;;;;;;34.85;32.30;;;;;;;;;;5030284;28;20425;-60
2023/10/05 11:15:58;;;;;;;20.20;18.70;;;;;;;;;;5030299;28;20021;-59
2023/10/05 11:18:24;;;;;;;32.13;29.77;;;;;;;;;;5030303;28;20025;-59
2023/10/05 11:20:52;;;;;;;22.83;21.10;;;;;;;;;;5029611;28;20017;-58
2023/10/05 11:23:25;;;;;;;9.85;8.23;;;;;;;;;;5030528;28;20049;-59
2023/10/05 11:25:51;;;;;;;68.05;63.17;;;;;;;;;;5030178;28;20048;-61
2023/10/05 11:28:24;;;;;;;18.85;17.52;;;;;;;;;;5030444;28;20036;-60
2023/10/05 11:30:49;;;;;;;10.80;9.88;;;;;;;;;;5029974;28;20473;-60
2023/10/05 11:33:17;;;;;;;15.82;14.50;;;;;;;;;;5030663;28;20079;-61
2023/10/05 11:35:49;;;;;;;13.90;12.63;;;;;;;;;;5033378;28;20068;-61
2023/10/05 11:38:16;;;;;;;16.58;15.25;;;;;;;;;;5034062;28;20026;-60
2023/10/05 11:40:49;;;;;;;10.80;9.68;;;;;;;;;;5033606;28;20049;-59
2023/10/05 11:43:15;;;;;;;14.77;13.55;;;;;;;;;;5034598;28;20104;-60
2023/10/05 11:45:59;;;;;;;14.88;13.65;;;;;;;;;;5034687;28;20021;-61
2023/10/05 11:48:35;;;;;;;26.85;24.65;;;;;;;;;;5033971;28;20284;-60
2023/10/05 11:51:07;;;;;;;66.18;61.55;;;;;;;;;;5033435;28;20069;-60
2023/10/05 11:53:34;;;;;;;8.68;7.88;;;;;;;;;;5034359;28;20073;-60
2023/10/05 11:56:00;;;;;;;13.87;12.57;;;;;;;;;;5033897;28;20450;-58
2023/10/05 11:58:25;;;;;;;11.55;10.40;;;;;;;;;;5034086;28;20025;-60
2023/10/05 12:00:51;;;;;;;14.02;12.65;;;;;;;;;;5033106;28;20021;-58
2023/10/05 12:03:16;;;;;;;18.40;16.95;;;;;;;;;;5033992;28;20049;-59
2023/10/05 12:05:41;;;;;;;11.37;9.40;;;;;;;;;;5033377;28;20026;-59
2023/10/05 12:08:07;;;;;;;32.55;30.30;;;;;;;;;;5034015;28;20430;-60
2023/10/05 12:10:32;;;;;;;102.05;92.80;;;;;;;;;;5032990;28;20100;-61
2023/10/05 12:13:02;;;;;;;11.68;8.50;;;;;;;;;;5033948;28;20030;-60
2023/10/05 12:15:28;;;;;;;20.80;19.15;;;;;;;;;;5032618;28;20378;-60
2023/10/05 12:17:53;;;;;;;14.98;13.85;;;;;;;;;;5033829;28;20021;-58
2023/10/05 12:20:19;;;;;;;11.03;10.00;;;;;;;;;;5032695;28;20108;-59
2023/10/05 12:22:45;;;;;;;11.40;10.25;;;;;;;;;;5033859;28;20987;-59
2023/10/05 12:25:14;;;;;;;40.83;38.20;;;;;;;;;;5034234;28;20033;-59
2023/10/05 12:27:40;;;;;;;44.88;41.80;;;;;;;;;;5034363;28;20064;-61
2023/10/05 12:30:10;;;;;;;12.93;11.80;;;;;;;;;;5033122;28;20021;-59
2023/10/05 12:32:36;;;;;;;32.33;30.33;;;;;;;;;;5033524;28;20424;-61
2023/10/05 12:35:02;;;;;;;11.55;10.60;;;;;;;;;;5034229;28;20624;-59
2023/10/05 12:37:27;;;;;;;10.20;8.68;;;;;;;;;;5034923;28;20033;-60
2023/10/05 12:39:52;;;;;;;42.03;39.03;;;;;;;;;;5035985;28;20017;-60
2023/10/05 12:42:18;;;;;;;15.60;14.43;;;;;;;;;;5037060;28;20523;-60
2023/10/05 12:44:43;;;;;;;26.45;24.40;;;;;;;;;;5042527;28;20164;-59
2023/10/05 12:47:08;;;;;;;28.30;26.27;;;;;;;;;;5043622;28;20381;-59
2023/10/05 12:49:34;;;;;;;19.90;18.37;;;;;;;;;;5044078;28;20959;-61
2023/10/05 12:51:59;;;;;;;89.35;82.45;;;;;;;;;;5046751;28;20022;-59
2023/10/05 12:54:32;;;;;;;17.67;16.42;;;;;;;;;;5036646;28;20017;-59
2023/10/05 12:57:08;;;;;;;20.25;18.70;;;;;;;;;;5033022;28;20147;-59
2023/10/05 12:59:34;;;;;;;15.13;13.80;;;;;;;;;;5032094;28;20017;-60
2023/10/05 13:02:03;;;;;;;12.43;11.20;;;;;;;;;;5032870;28;20033;-60
2023/10/05 13:04:28;;;;;;;68.85;63.60;;;;;;;;;;5032285;28;20424;-57
2023/10/05 13:06:54;;;;;;;14.20;13.10;;;;;;;;;;5031374;28;20029;-60
2023/10/05 13:09:20;;;;;;;;;;;;;;;;;;5032250;28;20017;-60
2023/10/05 13:11:45;;;;;;;10.47;9.47;;;;;;;;;;5031916;28;19913;-60
2023/10/05 13:14:13;;;;;;;59.33;54.95;;;;;;;;;;5032060;28;20029;-57
2023/10/05 13:16:39;;;;;;;23.13;21.50;;;;;;;;;;5032149;28;20563;-61
2023/10/05 13:19:09;;;;;;;143.45;128.30;;;;;;;;;;5032042;28;20045;-59
2023/10/05 13:21:35;;;;;;;18.77;17.40;;;;;;;;;;5032001;28;20025;-60
2023/10/05 13:24:01;;;;;;;;;;;;;;;;;;5032328;28;20529;-59
2023/10/05 13:26:27;;;;;;;185.75;166.48;;;;;;;;;;5032135;28;20423;-60
2023/10/05 13:28:52;;;;;;;12.40;11.35;;;;;;;;;;5031809;28;20024;-60
2023/10/05 13:31:20;;;;;;;10.60;9.68;;;;;;;;;;5031684;28;20021;-58
2023/10/05 13:33:47;;;;;;;32.13;29.35;;;;;;;;;;5031735;28;20091;-60
2023/10/05 13:36:12;;;;;;;22.67;20.75;;;;;;;;;;5031936;28;20100;-61
2023/10/05 13:38:39;;;;;;;18.20;16.57;;;;;;;;;;5032289;28;20452;-60
2023/10/05 13:43:30;;;;;;;25.77;24.17;;;;;;;;;;5031689;28;20100;-58
2023/10/05 13:45:56;;;;;;;39.45;36.53;;;;;;;;;;5031158;28;20473;-59
2023/10/05 13:48:29;;;;;;;21.65;20.20;;;;;;;;;;5031495;28;20432;-59
2023/10/05 13:50:55;;;;;;;18.58;16.92;;;;;;;;;;5031188;28;20029;-58
2023/10/05 13:53:20;;;;;;;47.85;44.28;;;;;;;;;;5031507;28;20026;-60
2023/10/05 13:55:48;;;;;;;44.73;41.77;;;;;;;;;;5031438;28;20377;-60
2023/10/05 13:58:17;;;;;;;15.48;14.30;;;;;;;;;;5030602;28;20045;-61
2023/10/05 14:00:43;;;;;;;58.92;54.03;;;;;;;;;;5031185;28;20125;-60
2023/10/05 14:03:08;;;;;;;20.52;19.00;;;;;;;;;;5031555;28;20036;-61
2023/10/05 14:05:34;;;;;;;23.33;21.73;;;;;;;;;;5031354;28;20022;-60
2023/10/05 14:07:59;;;;;;;34.05;31.77;;;;;;;;;;5031005;28;20420;-60
2023/10/05 14:10:25;;;;;;;14.48;13.13;;;;;;;;;;5030463;28;20101;-60
2023/10/05 14:12:50;;;;;;;14.15;13.00;;;;;;;;;;5031279;28;20740;-60
2023/10/05 14:15:19;;;;;;;21.33;19.60;;;;;;;;;;5031129;28;20064;-60
2023/10/05 14:17:45;;;;;;;8.45;7.53;;;;;;;;;;5030846;28;20091;-60
2023/10/05 14:20:11;;;;;;;6.53;5.10;;;;;;;;;;5030350;28;20133;-58
2023/10/05 14:22:36;;;;;;;20.60;19.20;;;;;;;;;;5030896;28;20548;-60
2023/10/05 14:25:07;;;;;;;101.67;93.87;;;;;;;;;;5030862;28;20370;-59
2023/10/05 14:27:34;;;;;;;21.77;20.17;;;;;;;;;;5031568;28;20017;-61
2023/10/05 14:30:06;;;;;;;18.70;17.23;;;;;;;;;;5030633;28;20687;-60
2023/10/05 14:32:36;;;;;;;27.38;25.52;;;;;;;;;;5031172;28;20032;-59
2023/10/05 14:35:04;;;;;;;33.28;31.02;;;;;;;;;;5031232;28;20424;-59
2023/10/05 14:37:30;;;;;;;13.15;12.02;;;;;;;;;;5030661;28;20033;-60
2023/10/05 14:39:56;;;;;;;10.90;8.20;;;;;;;;;;5030195;28;20022;-60
2023/10/05 14:42:22;;;;;;;13.75;12.73;;;;;;;;;;5031161;28;20485;-60
2023/10/05 14:44:47;;;;;;;13.23;11.33;;;;;;;;;;5030834;28;20017;-60
2023/10/05 14:47:13;;;;;;;13.77;12.47;;;;;;;;;;5030862;28;20024;-59
2023/10/05 14:49:40;;;;;;;;;;;;;;;;;;5030577;28;20425;-60